TimeMST,TemperatureF,Dew PointF,Humidity,Sea Level PressureIn,VisibilityMPH,Wind Direction,Wind SpeedMPH,Gust SpeedMPH,PrecipitationIn,Events,Conditions,WindDirDegrees,DateUTC
12:53 AM,21.9,14.0,72,30.06,10.0,Calm,Calm,-,N/A,,Clear,0,2011-11-22 07:53:00
1:53 AM,21.9,15.1,75,30.03,10.0,Calm,Calm,-,N/A,,Clear,0,2011-11-22 08:53:00
2:53 AM,18.0,12.9,81,30.04,10.0,NW,5.8,-,N/A,,Clear,310,2011-11-22 09:53:00
3:53 AM,17.6,10.4,73,29.93,10.0,Calm,Calm,-,N/A,,Clear,0,2011-11-22 10:53:00
4:53 AM,17.1,12.0,81,30.02,10.0,Calm,Calm,-,N/A,,Clear,0,2011-11-22 11:53:00
5:53 AM,27.0,15.1,61,29.96,10.0,SW,5.8,-,N/A,,Clear,230,2011-11-22 12:53:00
6:53 AM,32.0,18.0,56,29.94,10.0,Variable,3.5,-,N/A,,Clear,0,2011-11-22 13:53:00
7:53 AM,30.9,19.0,61,30.00,10.0,SSW,6.9,-,N/A,,Mostly Cloudy,200,2011-11-22 14:53:00
8:53 AM,32.0,19.4,60,29.91,10.0,SE,5.8,-,N/A,,Mostly Cloudy,130,2011-11-22 15:53:00
9:53 AM,37.0,21.0,52,30.00,10.0,Variable,6.9,-,N/A,,Scattered Clouds,0,2011-11-22 16:53:00
10:53 AM,42.1,23.0,47,29.99,10.0,Calm,Calm,-,N/A,,Mostly Cloudy,0,2011-11-22 17:53:00
11:53 AM,39.9,26.1,58,30.00,10.0,SSW,12.7,19.6,N/A,,Mostly Cloudy,210,2011-11-22 18:53:00
12:53 PM,39.9,28.0,63,30.00,10.0,SSW,9.2,-,N/A,,Mostly Cloudy,200,2011-11-22 19:53:00
1:53 PM,42.1,27.0,55,30.02,10.0,Variable,5.8,-,N/A,,Overcast,0,2011-11-22 20:53:00
2:53 PM,43.0,26.1,51,30.03,10.0,SSW,11.5,-,N/A,,Overcast,210,2011-11-22 21:53:00
3:53 PM,42.1,27.0,55,30.05,10.0,SSW,15.0,-,N/A,,Mostly Cloudy,200,2011-11-22 22:53:00
4:53 PM,43.0,26.1,51,30.06,10.0,NW,4.6,20.7,N/A,,Overcast,310,2011-11-22 23:53:00
5:53 PM,41.0,26.6,57,30.00,10.0,South,4.6,17.3,N/A,,Overcast,180,2011-11-23 00:53:00
6:53 PM,37.9,28.0,68,30.06,10.0,SSE,12.7,-,N/A,,Overcast,160,2011-11-23 01:53:00
7:53 PM,37.9,27.0,65,30.06,10.0,South,12.7,-,N/A,,Clear,170,2011-11-23 02:53:00
8:53 PM,37.9,27.0,65,30.06,10.0,South,16.1,21.9,N/A,,Partly Cloudy,190,2011-11-23 03:53:00
9:53 PM,37.0,27.0,67,30.06,10.0,SSE,5.8,-,N/A,,Clear,160,2011-11-23 04:53:00
10:53 PM,39.0,26.1,60,30.00,10.0,South,4.6,-,N/A,,Clear,190,2011-11-23 05:53:00
11:53 PM,37.0,26.1,65,30.01,10.0,South,10.4,-,N/A,,Clear,190,2011-11-23 06:53:00